createdAt,value
2019-03-26T00:04:11.804Z,101557.47
2019-03-26T00:06:55.183Z,101558.38
2019-03-26T00:09:45.986Z,101553.91
2019-03-26T00:12:29.043Z,101556.17
2019-03-26T00:15:19.904Z,101557.05
2019-03-26T00:18:02.772Z,101550.14
2019-03-26T00:20:53.652Z,101551.06
2019-03-26T00:23:37.134Z,101552.34
2019-03-26T00:26:28.056Z,101554.56
2019-03-26T00:29:31.211Z,101555.84
2019-03-26T00:32:23.648Z,101557.09
2019-03-26T00:35:27.252Z,101546.69
2019-03-26T00:38:18.167Z,101547.64
2019-03-26T00:41:01.822Z,101548.52
2019-03-26T00:43:52.744Z,101546.67
2019-03-26T00:46:35.953Z,101556.23
2019-03-26T00:49:26.885Z,101556.38
2019-03-26T00:52:29.622Z,101552.03
2019-03-26T00:55:22.946Z,101564.61
2019-03-26T00:58:25.241Z,101562.50
2019-03-26T01:01:16.183Z,101564.25
2019-03-26T01:03:58.996Z,101560.25
2019-03-26T01:06:49.888Z,101565.53
2019-03-26T01:09:32.738Z,101563.33
2019-03-26T01:12:23.628Z,101558.58
2019-03-26T01:15:07.267Z,101562.48
2019-03-26T01:17:58.178Z,101567.70
2019-03-26T01:20:41.812Z,101578.66
2019-03-26T01:23:32.759Z,101577.39
2019-03-26T01:26:35.454Z,101575.64
2019-03-26T01:29:26.381Z,101580.89
2019-03-26T01:32:09.243Z,101579.98
2019-03-26T01:35:00.327Z,101588.72
2019-03-26T01:37:43.186Z,101589.55
2019-03-26T01:40:34.151Z,101588.72
2019-03-26T01:43:17.550Z,101593.98
2019-03-26T01:46:08.476Z,101594.40
2019-03-26T01:48:52.039Z,101590.00
2019-03-26T01:51:42.943Z,101584.34
2019-03-26T01:54:25.991Z,101589.23
2019-03-26T01:57:16.931Z,101590.16
2019-03-26T02:00:08.211Z,101595.36
2019-03-26T02:02:51.277Z,101595.82
2019-03-26T02:05:42.206Z,101595.38
2019-03-26T02:08:25.795Z,101596.30
2019-03-26T02:11:16.713Z,101588.88
2019-03-26T02:13:59.957Z,101588.44
2019-03-26T02:16:50.922Z,101583.27
2019-03-26T02:19:34.589Z,101594.11
2019-03-26T02:22:25.515Z,101588.88
2019-03-26T02:25:08.508Z,101593.70
2019-03-26T02:27:59.476Z,101594.16
2019-03-26T02:30:42.584Z,101587.19
2019-03-26T02:33:33.493Z,101599.91
2019-03-26T02:36:16.313Z,101599.05
2019-03-26T02:39:08.646Z,101598.67
2019-03-26T02:41:52.079Z,101596.47
2019-03-26T02:44:43.001Z,101583.34
2019-03-26T02:47:26.617Z,101592.55
2019-03-26T02:50:17.527Z,101592.09
2019-03-26T02:53:01.278Z,101587.70
2019-03-26T02:55:52.217Z,101583.30
2019-03-26T02:58:35.575Z,101586.82
2019-03-26T03:01:18.523Z,101581.99
2019-03-26T03:04:09.426Z,101582.89
2019-03-26T03:06:52.370Z,101585.05
2019-03-26T03:09:43.301Z,101592.00
2019-03-26T03:12:26.742Z,101587.16
2019-03-26T03:15:17.685Z,101590.70
2019-03-26T03:18:21.060Z,101593.33
2019-03-26T03:21:12.007Z,101595.47
2019-03-26T03:23:55.230Z,101594.19
2019-03-26T03:26:46.165Z,101596.36
2019-03-26T03:29:29.489Z,101600.34
2019-03-26T03:32:20.452Z,101598.56
2019-03-26T03:35:03.872Z,101595.96
2019-03-26T03:37:54.795Z,101605.18
2019-03-26T03:40:37.848Z,101602.12
2019-03-26T03:43:28.813Z,101601.70
2019-03-26T03:46:12.138Z,101606.94
2019-03-26T03:49:03.394Z,101605.59
2019-03-26T03:51:47.023Z,101612.59
2019-03-26T03:55:16.981Z,101605.17
2019-03-26T03:58:00.625Z,101617.31
2019-03-26T04:00:51.549Z,101607.80
2019-03-26T04:03:34.934Z,101608.66
2019-03-26T04:06:25.845Z,101607.78
2019-03-26T04:09:08.750Z,101617.34
2019-03-26T04:11:59.691Z,101621.73
2019-03-26T04:14:42.578Z,101622.20
2019-03-26T04:17:33.478Z,101617.84
2019-03-26T04:20:16.449Z,101616.50
2019-03-26T04:23:07.372Z,101612.11
2019-03-26T04:25:51.159Z,101614.31
2019-03-26T04:28:42.048Z,101611.70
2019-03-26T04:31:25.455Z,101620.50
2019-03-26T04:34:16.360Z,101612.66
2019-03-26T04:37:00.143Z,101612.66
2019-03-26T04:39:51.056Z,101616.55
2019-03-26T04:42:34.590Z,101606.98
2019-03-26T04:45:25.522Z,101609.66
2019-03-26T04:48:08.667Z,101605.70
2019-03-26T04:50:59.543Z,101612.25
2019-03-26T04:53:43.024Z,101606.15
2019-03-26T04:56:33.903Z,101614.41
2019-03-26T04:59:16.749Z,101612.67
2019-03-26T05:02:00.111Z,101606.16
2019-03-26T05:04:51.051Z,101605.30
2019-03-26T05:07:34.356Z,101605.70
2019-03-26T05:10:25.266Z,101603.09
2019-03-26T05:13:08.705Z,101609.19
2019-03-26T05:15:59.610Z,101603.06
2019-03-26T05:18:43.019Z,101600.44
2019-03-26T05:21:33.928Z,101598.70
2019-03-26T05:24:17.657Z,101596.92
2019-03-26T05:27:08.569Z,101597.77
2019-03-26T05:29:52.036Z,101601.70
2019-03-26T05:32:43.013Z,101600.81
2019-03-26T05:35:25.782Z,101599.48
2019-03-26T05:38:16.723Z,101601.23
2019-03-26T05:40:59.676Z,101609.50
2019-03-26T05:43:50.600Z,101609.92
2019-03-26T05:46:34.849Z,101616.01
2019-03-26T05:49:25.762Z,101617.78
2019-03-26T05:52:16.703Z,101621.26
2019-03-26T05:55:19.799Z,101618.59
2019-03-26T05:58:10.659Z,101613.34
2019-03-26T06:00:53.585Z,101612.03
2019-03-26T06:03:37.212Z,101616.00
2019-03-26T06:06:28.110Z,101617.77
2019-03-26T06:09:11.578Z,101616.48
2019-03-26T06:12:02.426Z,101619.52
2019-03-26T06:14:45.392Z,101617.74
2019-03-26T06:17:29.005Z,101628.20
2019-03-26T06:20:19.975Z,101627.30
2019-03-26T06:23:10.846Z,101633.41
2019-03-26T06:26:13.845Z,101631.58
2019-03-26T06:29:04.724Z,101632.48
2019-03-26T06:31:48.390Z,101636.44
2019-03-26T06:34:39.287Z,101637.31
2019-03-26T06:37:22.226Z,101636.03
2019-03-26T06:40:13.461Z,101644.30
2019-03-26T06:42:56.377Z,101646.05
2019-03-26T06:45:47.256Z,101653.45
2019-03-26T06:48:30.701Z,101655.55
2019-03-26T06:51:21.628Z,101649.03
2019-03-26T06:54:05.396Z,101647.67
2019-03-26T06:56:56.326Z,101654.27
2019-03-26T06:59:39.933Z,101656.39
2019-03-26T07:02:30.983Z,101660.23
2019-03-26T07:05:21.879Z,101662.83
2019-03-26T07:08:05.495Z,101662.38
2019-03-26T07:10:56.372Z,101668.03
2019-03-26T07:13:40.084Z,101663.64
2019-03-26T07:16:31.002Z,101661.38
2019-03-26T07:19:14.740Z,101666.54
2019-03-26T07:22:05.592Z,101665.45
2019-03-26T07:24:49.107Z,101669.56
2019-03-26T07:27:40.165Z,101673.76
2019-03-26T07:30:42.253Z,101673.54
2019-03-26T07:33:33.151Z,101672.88
2019-03-26T07:36:17.981Z,101678.39
2019-03-26T07:39:09.072Z,101673.48
2019-03-26T07:41:52.282Z,101674.29
2019-03-26T07:44:45.458Z,101684.36
2019-03-26T07:47:48.136Z,101684.42
2019-03-26T07:50:39.061Z,101686.23
2019-03-26T07:53:21.909Z,101689.42
2019-03-26T07:56:12.819Z,101696.94
2019-03-26T07:58:55.667Z,101703.67
2019-03-26T08:01:46.606Z,101709.64
2019-03-26T08:04:29.815Z,101714.59
2019-03-26T08:07:20.790Z,101713.77
2019-03-26T08:10:04.531Z,101720.02
2019-03-26T08:12:55.464Z,101719.53
2019-03-26T08:15:38.315Z,101723.52
2019-03-26T08:18:29.247Z,101720.91
2019-03-26T08:21:12.155Z,101715.08
2019-03-26T08:24:03.033Z,101709.59
2019-03-26T08:26:46.784Z,101703.94
2019-03-26T08:29:37.659Z,101701.54
2019-03-26T08:32:20.826Z,101708.72
2019-03-26T08:35:11.729Z,101713.75
2019-03-26T08:37:55.437Z,101719.73
2019-03-26T08:40:46.508Z,101717.38
2019-03-26T08:43:29.919Z,101714.16
2019-03-26T08:46:20.850Z,101715.23
2019-03-26T08:49:05.355Z,101707.98
2019-03-26T08:51:56.221Z,101709.92
2019-03-26T08:54:39.204Z,101708.44
2019-03-26T08:57:30.143Z,101719.02
2019-03-26T09:00:13.536Z,101718.08
2019-03-26T09:03:04.453Z,101720.11
2019-03-26T09:05:47.386Z,101721.76
2019-03-26T09:08:38.334Z,101714.70
2019-03-26T09:11:21.819Z,101712.91
2019-03-26T09:14:12.727Z,101713.86
2019-03-26T09:16:56.458Z,101719.20
2019-03-26T09:19:47.356Z,101720.84
2019-03-26T09:22:30.458Z,101721.12
2019-03-26T09:25:21.345Z,101717.69
2019-03-26T09:28:04.465Z,101718.97
2019-03-26T09:30:55.366Z,101720.73
2019-03-26T09:33:38.903Z,101719.53
2019-03-26T09:36:29.815Z,101718.11
2019-03-26T09:39:13.406Z,101720.80
2019-03-26T09:42:04.321Z,101716.65
2019-03-26T09:44:47.469Z,101712.27
2019-03-26T09:47:38.440Z,101713.19
2019-03-26T09:50:42.064Z,101700.89
2019-03-26T09:53:32.957Z,101699.48
2019-03-26T09:56:28.325Z,101696.38
2019-03-26T09:59:09.071Z,101700.27
2019-03-26T10:01:52.716Z,101708.13
2019-03-26T10:04:43.632Z,101710.75
2019-03-26T10:07:26.925Z,101702.02
2019-03-26T10:10:17.980Z,101708.47
2019-03-26T10:13:00.826Z,101706.05
2019-03-26T10:15:51.737Z,101708.10
2019-03-26T10:18:35.306Z,101696.84
2019-03-26T10:21:26.233Z,101699.67
2019-03-26T10:24:09.557Z,101695.48
2019-03-26T10:27:00.516Z,101693.52
2019-03-26T10:29:43.784Z,101690.95
2019-03-26T10:32:34.731Z,101681.69
2019-03-26T10:35:38.055Z,101685.59
2019-03-26T10:38:29.002Z,101685.03
2019-03-26T10:41:19.933Z,101682.89
2019-03-26T10:44:10.876Z,101678.42
2019-03-26T10:47:01.814Z,101687.93
2019-03-26T10:49:52.850Z,101686.61
2019-03-26T10:52:35.971Z,101681.92
2019-03-26T10:55:26.898Z,101685.16
2019-03-26T10:58:10.540Z,101683.74
2019-03-26T11:01:01.506Z,101676.29
2019-03-26T11:03:44.802Z,101684.81
2019-03-26T11:06:28.131Z,101682.67
2019-03-26T11:09:25.362Z,101676.41
2019-03-26T11:12:24.193Z,101678.44
2019-03-26T11:15:15.318Z,101671.19
2019-03-26T11:18:18.305Z,101670.53
2019-03-26T11:21:09.215Z,101666.63
2019-03-26T11:23:52.002Z,101664.05
2019-03-26T11:26:42.960Z,101667.37
2019-03-26T11:29:26.194Z,101664.34
2019-03-26T11:32:17.134Z,101660.06
2019-03-26T11:35:00.909Z,101662.97
2019-03-26T11:37:51.820Z,101662.45
2019-03-26T11:40:34.687Z,101652.98
2019-03-26T11:43:25.616Z,101658.92
2019-03-26T11:46:16.575Z,101652.92
2019-03-26T11:49:00.199Z,101651.33
2019-03-26T11:51:51.119Z,101651.08
2019-03-26T11:54:34.934Z,101650.34
2019-03-26T11:57:18.403Z,101639.38
2019-03-26T12:00:48.693Z,101644.09
2019-03-26T12:03:32.470Z,101643.73
2019-03-26T12:06:23.441Z,101640.97
2019-03-26T12:09:07.589Z,101629.23
2019-03-26T12:11:58.497Z,101632.36
2019-03-26T12:14:42.212Z,101631.97
2019-03-26T12:17:33.163Z,101637.56
2019-03-26T12:20:16.887Z,101628.89
2019-03-26T12:23:07.844Z,101638.82
2019-03-26T12:25:51.271Z,101633.77
2019-03-26T12:28:42.190Z,101638.95
2019-03-26T12:31:45.802Z,101635.78
2019-03-26T12:34:36.789Z,101647.42
2019-03-26T12:37:19.989Z,101640.88
2019-03-26T12:40:11.150Z,101634.56
2019-03-26T12:42:54.508Z,101643.04
2019-03-26T12:45:37.744Z,101640.07
2019-03-26T12:48:28.673Z,101636.64
2019-03-26T12:51:12.225Z,101634.12
2019-03-26T12:54:03.136Z,101633.81
2019-03-26T12:56:46.587Z,101638.12
2019-03-26T12:59:37.500Z,101629.77
2019-03-26T13:02:21.041Z,101629.63
2019-03-26T13:05:12.228Z,101623.05
2019-03-26T13:08:03.147Z,101627.18
2019-03-26T13:10:53.598Z,101627.23
2019-03-26T13:13:38.723Z,101630.44
2019-03-26T13:16:21.455Z,101643.63
2019-03-26T13:19:51.380Z,101641.73
2019-03-26T13:22:34.880Z,101642.03
2019-03-26T13:25:25.843Z,101634.47
2019-03-26T13:28:08.861Z,101630.69
2019-03-26T13:30:59.763Z,101616.48
2019-03-26T13:33:42.858Z,101624.09
2019-03-26T13:36:33.798Z,101624.31
2019-03-26T13:39:16.849Z,101619.44
2019-03-26T13:42:07.809Z,101616.27
2019-03-26T13:44:50.895Z,101613.72
2019-03-26T13:47:34.123Z,101610.75
2019-03-26T13:50:25.084Z,101617.40
2019-03-26T13:53:16.008Z,101619.75
2019-03-26T13:55:59.614Z,101622.97
2019-03-26T13:58:50.510Z,101622.50
2019-03-26T14:01:33.348Z,101629.25
2019-03-26T14:04:24.276Z,101630.77
2019-03-26T14:07:07.877Z,101623.39
2019-03-26T14:09:58.800Z,101623.88
2019-03-26T14:12:49.718Z,101623.53
2019-03-26T14:15:32.908Z,101621.91
2019-03-26T14:18:23.832Z,101625.47
2019-03-26T14:21:14.759Z,101627.38
2019-03-26T14:24:05.684Z,101625.47
2019-03-26T14:26:56.615Z,101627.19
2019-03-26T14:29:39.803Z,101626.80
2019-03-26T14:32:30.697Z,101629.03
2019-03-26T14:35:21.688Z,101634.38
2019-03-26T14:38:05.183Z,101625.48
2019-03-26T14:41:35.106Z,101627.28
2019-03-26T14:44:17.969Z,101619.44
2019-03-26T14:47:01.741Z,101622.94
2019-03-26T14:49:52.780Z,101632.06
2019-03-26T14:52:35.857Z,101625.56
2019-03-26T14:55:26.759Z,101633.63
2019-03-26T14:58:10.486Z,101627.70
2019-03-26T15:01:01.445Z,101619.50
2019-03-26T15:03:44.979Z,101621.22
2019-03-26T15:06:35.937Z,101617.19
2019-03-26T15:09:18.845Z,101623.67
2019-03-26T15:12:09.793Z,101618.89
2019-03-26T15:14:53.382Z,101613.55
2019-03-26T15:17:44.300Z,101615.08
2019-03-26T15:20:27.698Z,101610.34
2019-03-26T15:23:18.587Z,101612.53
2019-03-26T15:26:02.355Z,101606.63
2019-03-26T15:28:53.244Z,101601.19
2019-03-26T15:31:36.862Z,101607.11
2019-03-26T15:34:36.021Z,101601.84
2019-03-26T15:37:32.541Z,101609.47
2019-03-26T15:40:23.476Z,101603.51
2019-03-26T15:43:06.340Z,101605.52
2019-03-26T15:46:00.555Z,101603.28
2019-03-26T15:48:44.309Z,101602.70
2019-03-26T15:51:35.311Z,101603.54
2019-03-26T15:54:18.410Z,101609.11
2019-03-26T15:57:09.333Z,101604.09
2019-03-26T15:59:52.905Z,101607.50
2019-03-26T16:02:43.839Z,101607.12
2019-03-26T16:05:27.528Z,101593.84
2019-03-26T16:08:18.470Z,101598.23
2019-03-26T16:11:02.186Z,101596.59
2019-03-26T16:13:45.694Z,101603.70
2019-03-26T16:16:36.611Z,101602.17
2019-03-26T16:19:32.811Z,101604.81
2019-03-26T16:22:32.411Z,101598.33
2019-03-26T16:25:23.350Z,101598.07
2019-03-26T16:28:06.603Z,101602.41
2019-03-26T16:30:57.518Z,101601.23
2019-03-26T16:33:41.300Z,101603.02
2019-03-26T16:36:59.336Z,101601.32
2019-03-26T16:39:55.331Z,101596.23
2019-03-26T16:42:46.209Z,101600.70
2019-03-26T16:45:29.488Z,101596.85
2019-03-26T16:48:20.398Z,101603.52
2019-03-26T16:51:03.302Z,101607.02
2019-03-26T16:53:54.172Z,101608.42
2019-03-26T16:56:37.758Z,101611.58
2019-03-26T16:59:28.622Z,101612.48
2019-03-26T17:02:11.473Z,101613.37
2019-03-26T17:05:02.378Z,101611.21
2019-03-26T17:07:53.267Z,101607.71
2019-03-26T17:10:44.175Z,101612.61
2019-03-26T17:13:35.135Z,101616.55
2019-03-26T17:16:18.239Z,101608.27
2019-03-26T17:19:09.152Z,101607.36
2019-03-26T17:21:52.428Z,101611.81
2019-03-26T17:24:43.322Z,101614.13
2019-03-26T17:27:29.139Z,101606.13
2019-03-26T17:30:19.433Z,101613.30
2019-03-26T17:33:02.738Z,101609.47
2019-03-26T17:35:53.630Z,101605.60
2019-03-26T17:38:37.310Z,101610.78
2019-03-26T17:41:28.182Z,101605.53
2019-03-26T17:44:11.873Z,101610.86
2019-03-26T17:47:02.784Z,101617.91
2019-03-26T17:49:45.888Z,101614.44
2019-03-26T17:52:36.790Z,101616.67
2019-03-26T17:55:20.285Z,101617.07
2019-03-26T17:58:11.259Z,101618.83
2019-03-26T18:00:54.692Z,101620.61
2019-03-26T18:03:45.676Z,101619.26
2019-03-26T18:06:36.559Z,101621.48
2019-03-26T18:09:27.452Z,101624.52
2019-03-26T18:12:10.358Z,101633.75
2019-03-26T18:15:01.229Z,101632.04
2019-03-26T18:17:44.342Z,101633.39
2019-03-26T18:20:35.209Z,101637.77
2019-03-26T18:23:19.011Z,101639.52
2019-03-26T18:26:09.975Z,101642.59
2019-03-26T18:28:55.418Z,101637.37
2019-03-26T18:31:46.279Z,101636.09
2019-03-26T18:34:29.595Z,101637.77
2019-03-26T18:37:20.512Z,101637.41
2019-03-26T18:40:03.499Z,101639.16
2019-03-26T18:42:54.459Z,101647.48
2019-03-26T18:45:38.054Z,101639.63
2019-03-26T18:48:28.954Z,101643.61
2019-03-26T18:51:11.974Z,101646.67
2019-03-26T18:54:02.929Z,101648.86
2019-03-26T18:56:45.700Z,101649.77
2019-03-26T18:59:36.590Z,101655.88
2019-03-26T19:02:27.517Z,101653.69
2019-03-26T19:05:10.414Z,101657.63
2019-03-26T19:08:01.409Z,101655.88
2019-03-26T19:10:44.439Z,101658.50
2019-03-26T19:13:27.711Z,101655.84
2019-03-26T19:16:18.646Z,101670.29
2019-03-26T19:19:21.937Z,101663.69
2019-03-26T19:22:12.864Z,101665.91
2019-03-26T19:24:55.695Z,101670.77
2019-03-26T19:27:46.657Z,101680.36
2019-03-26T19:30:29.602Z,101684.78
2019-03-26T19:33:20.520Z,101683.94
2019-03-26T19:36:04.310Z,101679.09
2019-03-26T19:38:55.248Z,101679.55
2019-03-26T19:41:38.724Z,101687.41
2019-03-26T19:44:29.651Z,101690.94
2019-03-26T19:47:12.982Z,101700.98
2019-03-26T19:50:03.907Z,101703.14
2019-03-26T19:52:47.466Z,101705.80
2019-03-26T19:55:38.364Z,101704.52
2019-03-26T19:58:21.649Z,101702.33
2019-03-26T20:01:12.577Z,101705.80
2019-03-26T20:03:55.525Z,101696.67
2019-03-26T20:06:46.499Z,101708.49
2019-03-26T20:09:29.747Z,101707.18
2019-03-26T20:12:20.676Z,101704.98
2019-03-26T20:15:04.097Z,101701.55
2019-03-26T20:17:55.091Z,101698.52
2019-03-26T20:20:38.883Z,101701.52
2019-03-26T20:23:29.896Z,101701.99
2019-03-26T20:26:12.979Z,101697.58
2019-03-26T20:29:03.968Z,101700.20
2019-03-26T20:31:47.021Z,101705.90
2019-03-26T20:34:37.979Z,101708.09
2019-03-26T20:37:21.786Z,101708.97
2019-03-26T20:40:51.817Z,101718.16
2019-03-26T20:43:37.628Z,101708.56
2019-03-26T20:46:27.813Z,101692.86
2019-03-26T20:49:18.716Z,101696.73
2019-03-26T20:52:01.801Z,101699.83
2019-03-26T20:54:52.714Z,101708.59
2019-03-26T20:57:35.728Z,101704.25
2019-03-26T21:01:13.380Z,101716.91
2019-03-26T21:03:56.624Z,101724.36
2019-03-26T21:06:47.596Z,101723.48
2019-03-26T21:09:38.533Z,101715.66
2019-03-26T21:12:29.467Z,101722.23
2019-03-26T21:15:12.996Z,101715.28
2019-03-26T21:18:04.030Z,101727.95
2019-03-26T21:20:46.824Z,101727.08
2019-03-26T21:23:31.379Z,101723.58
2019-03-26T21:26:22.303Z,101728.86
2019-03-26T21:29:13.216Z,101727.11
2019-03-26T21:31:56.275Z,101726.27
2019-03-26T21:34:47.217Z,101729.36
2019-03-26T21:37:30.482Z,101732.42
2019-03-26T21:40:21.495Z,101731.58
2019-03-26T21:43:04.919Z,101732.92
2019-03-26T21:45:55.866Z,101742.14
2019-03-26T21:48:38.882Z,101742.14
2019-03-26T21:51:10.920Z,101743.02
2019-03-26T21:53:54.305Z,101742.14
2019-03-26T21:56:45.217Z,101742.58
2019-03-26T21:59:28.877Z,101736.45
2019-03-26T22:02:19.780Z,101735.58
2019-03-26T22:05:02.951Z,101745.64
2019-03-26T22:07:53.843Z,101738.67
2019-03-26T22:10:37.396Z,101740.02
2019-03-26T22:13:28.278Z,101743.08
2019-03-26T22:16:11.951Z,101741.33
2019-03-26T22:19:02.885Z,101740.95
2019-03-26T22:21:45.764Z,101740.95
2019-03-26T22:24:36.691Z,101734.85
2019-03-26T22:27:20.041Z,101739.22
2019-03-26T22:33:39.409Z,101731.38
2019-03-26T22:36:30.316Z,101737.06
2019-03-26T22:39:21.222Z,101738.41
2019-03-26T22:42:04.255Z,101735.34
2019-03-26T22:44:55.199Z,101734.46
2019-03-26T22:47:38.394Z,101736.23
2019-03-26T22:50:29.292Z,101726.67
2019-03-26T22:53:12.855Z,101740.70
2019-03-26T22:56:03.910Z,101731.97
2019-03-26T22:58:46.749Z,101728.94
2019-03-26T23:01:37.661Z,101720.22
2019-03-26T23:04:20.579Z,101726.37
2019-03-26T23:07:11.482Z,101723.33
2019-03-26T23:09:54.640Z,101731.70
2019-03-26T23:12:45.559Z,101729.55
2019-03-26T23:15:29.315Z,101731.77
2019-03-26T23:18:12.273Z,101731.38
2019-03-26T23:21:03.180Z,101734.05
2019-03-26T23:23:46.713Z,101739.34
2019-03-26T23:26:37.618Z,101737.66
2019-03-26T23:29:20.512Z,101738.98
2019-03-26T23:32:11.476Z,101739.45
2019-03-26T23:34:55.038Z,101734.23
2019-03-26T23:37:45.994Z,101737.74
2019-03-26T23:40:29.554Z,101743.04
2019-03-26T23:43:20.432Z,101748.27
2019-03-26T23:46:04.011Z,101742.18
2019-03-26T23:48:54.937Z,101739.13
2019-03-26T23:51:38.706Z,101741.77
2019-03-26T23:54:29.668Z,101737.00
2019-03-26T23:57:13.352Z,101737.86
